sensor_id;sensor_type;location;lat;lon;timestamp;P1;durP1;ratioP1;P2;durP2;ratioP2
17496;SDS011;62150;43.582;1.456;2022-12-20T07:03:37;6.17;;;2.73;;
17496;SDS011;62150;43.582;1.456;2022-12-20T07:06:05;6.43;;;2.60;;
17496;SDS011;62150;43.582;1.456;2022-12-20T07:08:32;8.47;;;2.77;;
17496;SDS011;62150;43.582;1.456;2022-12-20T07:11:03;7.70;;;2.40;;
17496;SDS011;62150;43.582;1.456;2022-12-20T07:13:31;5.93;;;2.50;;
17496;SDS011;62150;43.582;1.456;2022-12-20T07:15:59;7.90;;;2.90;;
17496;SDS011;62150;43.582;1.456;2022-12-20T07:18:27;5.80;;;2.47;;
17496;SDS011;62150;43.582;1.456;2022-12-20T07:20:59;9.20;;;2.90;;
17496;SDS011;62150;43.582;1.456;2022-12-20T07:23:27;8.23;;;2.70;;
17496;SDS011;62150;43.582;1.456;2022-12-20T07:25:55;8.10;;;2.90;;
17496;SDS011;62150;43.582;1.456;2022-12-20T07:28:24;7.73;;;2.50;;
17496;SDS011;62150;43.582;1.456;2022-12-20T07:30:52;7.87;;;2.73;;
17496;SDS011;62150;43.582;1.456;2022-12-20T07:33:20;6.47;;;2.63;;
17496;SDS011;62150;43.582;1.456;2022-12-20T07:35:48;9.70;;;2.67;;
17496;SDS011;62150;43.582;1.456;2022-12-20T07:38:16;6.80;;;2.73;;
17496;SDS011;62150;43.582;1.456;2022-12-20T07:40:44;10.63;;;2.83;;
17496;SDS011;62150;43.582;1.456;2022-12-20T07:43:11;7.10;;;2.90;;
17496;SDS011;62150;43.582;1.456;2022-12-20T07:45:39;7.20;;;2.63;;
17496;SDS011;62150;43.582;1.456;2022-12-20T07:48:07;8.03;;;2.50;;
17496;SDS011;62150;43.582;1.456;2022-12-20T07:50:34;8.90;;;2.67;;
17496;SDS011;62150;43.582;1.456;2022-12-20T07:53:02;7.37;;;2.50;;
17496;SDS011;62150;43.582;1.456;2022-12-20T07:55:33;7.17;;;2.70;;
17496;SDS011;62150;43.582;1.456;2022-12-20T07:58:04;8.07;;;2.87;;
17496;SDS011;62150;43.582;1.456;2022-12-20T08:00:34;9.40;;;2.93;;
17496;SDS011;62150;43.582;1.456;2022-12-20T08:03:03;8.73;;;2.70;;
17496;SDS011;62150;43.582;1.456;2022-12-20T08:05:33;8.63;;;2.87;;
17496;SDS011;62150;43.582;1.456;2022-12-20T08:08:06;8.13;;;2.70;;
17496;SDS011;62150;43.582;1.456;2022-12-20T08:10:36;11.50;;;2.90;;
17496;SDS011;62150;43.582;1.456;2022-12-20T08:13:05;8.93;;;2.80;;
17496;SDS011;62150;43.582;1.456;2022-12-20T08:15:33;8.93;;;2.83;;
17496;SDS011;62150;43.582;1.456;2022-12-20T08:18:01;9.57;;;3.00;;
17496;SDS011;62150;43.582;1.456;2022-12-20T08:20:30;8.50;;;2.97;;
17496;SDS011;62150;43.582;1.456;2022-12-20T08:22:58;8.47;;;2.83;;
17496;SDS011;62150;43.582;1.456;2022-12-20T08:25:27;10.43;;;3.23;;
17496;SDS011;62150;43.582;1.456;2022-12-20T08:27:56;8.87;;;2.83;;
17496;SDS011;62150;43.582;1.456;2022-12-20T08:30:26;6.60;;;2.87;;
17496;SDS011;62150;43.582;1.456;2022-12-20T08:32:53;8.13;;;3.00;;
17496;SDS011;62150;43.582;1.456;2022-12-20T08:35:21;10.33;;;2.90;;
17496;SDS011;62150;43.582;1.456;2022-12-20T08:37:50;7.20;;;2.90;;
17496;SDS011;62150;43.582;1.456;2022-12-20T08:40:17;7.00;;;3.10;;
17496;SDS011;62150;43.582;1.456;2022-12-20T08:42:45;8.60;;;3.03;;
17496;SDS011;62150;43.582;1.456;2022-12-20T08:45:14;7.47;;;3.17;;
17496;SDS011;62150;43.582;1.456;2022-12-20T08:47:43;12.87;;;3.60;;
17496;SDS011;62150;43.582;1.456;2022-12-20T08:50:10;9.33;;;3.37;;
17496;SDS011;62150;43.582;1.456;2022-12-20T08:52:38;7.87;;;2.90;;
17496;SDS011;62150;43.582;1.456;2022-12-20T08:55:06;7.47;;;2.90;;
17496;SDS011;62150;43.582;1.456;2022-12-20T08:57:34;8.60;;;3.03;;
17496;SDS011;62150;43.582;1.456;2022-12-20T09:00:01;8.40;;;3.03;;
17496;SDS011;62150;43.582;1.456;2022-12-20T09:02:31;7.57;;;3.07;;
17496;SDS011;62150;43.582;1.456;2022-12-20T09:04:59;9.97;;;2.90;;
17496;SDS011;62150;43.582;1.456;2022-12-20T09:07:27;7.53;;;2.90;;
17496;SDS011;62150;43.582;1.456;2022-12-20T09:09:55;9.63;;;3.00;;
17496;SDS011;62150;43.582;1.456;2022-12-20T09:12:22;11.70;;;3.00;;
17496;SDS011;62150;43.582;1.456;2022-12-20T09:14:49;9.33;;;2.87;;
17496;SDS011;62150;43.582;1.456;2022-12-20T09:17:17;11.17;;;3.20;;
17496;SDS011;62150;43.582;1.456;2022-12-20T09:19:46;8.97;;;2.90;;
17496;SDS011;62150;43.582;1.456;2022-12-20T09:22:15;6.70;;;2.63;;
17496;SDS011;62150;43.582;1.456;2022-12-20T09:24:42;10.10;;;3.00;;
17496;SDS011;62150;43.582;1.456;2022-12-20T09:27:10;7.17;;;3.00;;
17496;SDS011;62150;43.582;1.456;2022-12-20T09:29:37;7.53;;;2.90;;
17496;SDS011;62150;43.582;1.456;2022-12-20T09:32:05;7.40;;;3.00;;
17496;SDS011;62150;43.582;1.456;2022-12-20T09:34:32;7.13;;;2.80;;
17496;SDS011;62150;43.582;1.456;2022-12-20T09:37:01;7.83;;;2.63;;
17496;SDS011;62150;43.582;1.456;2022-12-20T09:39:29;9.47;;;3.00;;
17496;SDS011;62150;43.582;1.456;2022-12-20T09:41:56;8.90;;;3.07;;
17496;SDS011;62150;43.582;1.456;2022-12-20T09:44:25;8.70;;;2.80;;
17496;SDS011;62150;43.582;1.456;2022-12-20T09:46:56;8.43;;;3.00;;
17496;SDS011;62150;43.582;1.456;2022-12-20T09:49:27;6.87;;;2.73;;
17496;SDS011;62150;43.582;1.456;2022-12-20T09:54:52;9.33;;;2.67;;
17496;SDS011;62150;43.582;1.456;2022-12-20T09:57:30;9.93;;;3.27;;
17496;SDS011;62150;43.582;1.456;2022-12-20T10:00:13;7.17;;;3.00;;
17496;SDS011;62150;43.582;1.456;2022-12-20T10:02:42;9.07;;;3.07;;
17496;SDS011;62150;43.582;1.456;2022-12-20T10:05:12;6.33;;;2.70;;
17496;SDS011;62150;43.582;1.456;2022-12-20T10:07:45;10.13;;;3.10;;
17496;SDS011;62150;43.582;1.456;2022-12-20T10:10:30;8.27;;;2.83;;
17496;SDS011;62150;43.582;1.456;2022-12-20T10:13:11;8.03;;;2.70;;
17496;SDS011;62150;43.582;1.456;2022-12-20T10:15:50;8.40;;;2.97;;
17496;SDS011;62150;43.582;1.456;2022-12-20T10:18:33;7.80;;;3.00;;
17496;SDS011;62150;43.582;1.456;2022-12-20T10:21:14;8.83;;;2.80;;
17496;SDS011;62150;43.582;1.456;2022-12-20T10:23:52;8.60;;;3.00;;
17496;SDS011;62150;43.582;1.456;2022-12-20T10:26:26;8.77;;;3.10;;
17496;SDS011;62150;43.582;1.456;2022-12-20T10:28:54;7.00;;;2.97;;
17496;SDS011;62150;43.582;1.456;2022-12-20T10:31:22;10.30;;;2.97;;
17496;SDS011;62150;43.582;1.456;2022-12-20T10:33:50;8.23;;;3.00;;
17496;SDS011;62150;43.582;1.456;2022-12-20T10:36:19;6.80;;;2.97;;
17496;SDS011;62150;43.582;1.456;2022-12-20T10:38:50;7.90;;;2.90;;
17496;SDS011;62150;43.582;1.456;2022-12-20T10:41:19;10.03;;;3.33;;
17496;SDS011;62150;43.582;1.456;2022-12-20T10:43:50;10.93;;;3.43;;
17496;SDS011;62150;43.582;1.456;2022-12-20T10:46:21;11.20;;;3.70;;
17496;SDS011;62150;43.582;1.456;2022-12-20T10:48:59;10.53;;;3.60;;
17496;SDS011;62150;43.582;1.456;2022-12-20T10:51:50;10.77;;;3.60;;
17496;SDS011;62150;43.582;1.456;2022-12-20T10:54:21;10.07;;;3.60;;
17496;SDS011;62150;43.582;1.456;2022-12-20T10:56:54;11.50;;;4.30;;
17496;SDS011;62150;43.582;1.456;2022-12-20T10:59:26;11.77;;;3.83;;
17496;SDS011;62150;43.582;1.456;2022-12-20T11:01:59;11.63;;;4.00;;
17496;SDS011;62150;43.582;1.456;2022-12-20T11:04:29;9.10;;;3.40;;
17496;SDS011;62150;43.582;1.456;2022-12-20T11:06:58;9.10;;;3.60;;
17496;SDS011;62150;43.582;1.456;2022-12-20T11:09:30;10.03;;;3.30;;
17496;SDS011;62150;43.582;1.456;2022-12-20T11:12:00;8.73;;;3.27;;
17496;SDS011;62150;43.582;1.456;2022-12-20T11:14:30;9.20;;;3.13;;
17496;SDS011;62150;43.582;1.456;2022-12-20T11:17:00;9.07;;;3.20;;
17496;SDS011;62150;43.582;1.456;2022-12-20T11:19:40;8.37;;;3.50;;
17496;SDS011;62150;43.582;1.456;2022-12-20T11:22:24;10.00;;;3.27;;
17496;SDS011;62150;43.582;1.456;2022-12-20T11:25:15;11.23;;;3.10;;
17496;SDS011;62150;43.582;1.456;2022-12-20T11:28:07;10.33;;;3.10;;
17496;SDS011;62150;43.582;1.456;2022-12-20T11:30:49;5.93;;;2.70;;
17496;SDS011;62150;43.582;1.456;2022-12-20T11:33:32;10.80;;;3.20;;
17496;SDS011;62150;43.582;1.456;2022-12-20T11:36:10;6.90;;;2.97;;
17496;SDS011;62150;43.582;1.456;2022-12-20T11:38:48;8.77;;;3.10;;
17496;SDS011;62150;43.582;1.456;2022-12-20T11:41:25;7.47;;;3.00;;
17496;SDS011;62150;43.582;1.456;2022-12-20T11:44:08;7.90;;;3.17;;
17496;SDS011;62150;43.582;1.456;2022-12-20T11:46:52;7.90;;;3.00;;
17496;SDS011;62150;43.582;1.456;2022-12-20T11:52:23;9.90;;;3.20;;
17496;SDS011;62150;43.582;1.456;2022-12-20T11:55:02;7.67;;;3.07;;
17496;SDS011;62150;43.582;1.456;2022-12-20T11:57:35;7.10;;;2.77;;
17496;SDS011;62150;43.582;1.456;2022-12-20T12:00:10;10.13;;;3.10;;
17496;SDS011;62150;43.582;1.456;2022-12-20T12:02:42;10.20;;;3.20;;
17496;SDS011;62150;43.582;1.456;2022-12-20T12:05:16;8.00;;;2.97;;
17496;SDS011;62150;43.582;1.456;2022-12-20T12:07:48;9.40;;;3.70;;
17496;SDS011;62150;43.582;1.456;2022-12-20T12:10:22;9.23;;;3.17;;
17496;SDS011;62150;43.582;1.456;2022-12-20T12:12:57;9.50;;;3.40;;
17496;SDS011;62150;43.582;1.456;2022-12-20T12:15:33;10.87;;;3.10;;
17496;SDS011;62150;43.582;1.456;2022-12-20T12:18:06;7.57;;;3.00;;
17496;SDS011;62150;43.582;1.456;2022-12-20T12:20:41;8.23;;;2.87;;
17496;SDS011;62150;43.582;1.456;2022-12-20T12:23:15;7.40;;;2.70;;
17496;SDS011;62150;43.582;1.456;2022-12-20T12:25:57;7.17;;;2.77;;
17496;SDS011;62150;43.582;1.456;2022-12-20T12:28:28;7.30;;;2.77;;
17496;SDS011;62150;43.582;1.456;2022-12-20T12:30:57;7.33;;;2.80;;
17496;SDS011;62150;43.582;1.456;2022-12-20T12:33:40;10.13;;;2.90;;
17496;SDS011;62150;43.582;1.456;2022-12-20T12:42:19;10.00;;;3.00;;
17496;SDS011;62150;43.582;1.456;2022-12-20T12:45:14;7.33;;;2.97;;
17496;SDS011;62150;43.582;1.456;2022-12-20T12:47:47;8.63;;;2.87;;
17496;SDS011;62150;43.582;1.456;2022-12-20T12:50:21;7.40;;;2.73;;
17496;SDS011;62150;43.582;1.456;2022-12-20T12:52:53;7.53;;;3.00;;
17496;SDS011;62150;43.582;1.456;2022-12-20T12:55:39;7.53;;;3.00;;
17496;SDS011;62150;43.582;1.456;2022-12-20T13:00:59;6.90;;;2.90;;
17496;SDS011;62150;43.582;1.456;2022-12-20T13:03:37;7.50;;;2.90;;
17496;SDS011;62150;43.582;1.456;2022-12-20T13:09:21;9.70;;;3.10;;
17496;SDS011;62150;43.582;1.456;2022-12-20T13:18:19;7.77;;;3.03;;
17496;SDS011;62150;43.582;1.456;2022-12-20T13:23:56;7.47;;;3.40;;
17496;SDS011;62150;43.582;1.456;2022-12-20T13:27:22;9.00;;;3.63;;
17496;SDS011;62150;43.582;1.456;2022-12-20T13:30:01;8.57;;;3.00;;
17496;SDS011;62150;43.582;1.456;2022-12-20T13:32:57;8.43;;;3.10;;
17496;SDS011;62150;43.582;1.456;2022-12-20T13:35:53;8.70;;;2.87;;
17496;SDS011;62150;43.582;1.456;2022-12-20T13:38:35;8.33;;;2.70;;
17496;SDS011;62150;43.582;1.456;2022-12-20T13:41:20;7.67;;;2.80;;
17496;SDS011;62150;43.582;1.456;2022-12-20T13:44:17;8.00;;;3.00;;
17496;SDS011;62150;43.582;1.456;2022-12-20T13:47:06;8.20;;;2.97;;
17496;SDS011;62150;43.582;1.456;2022-12-20T13:49:45;5.63;;;2.70;;
17496;SDS011;62150;43.582;1.456;2022-12-20T13:52:25;7.13;;;2.70;;
17496;SDS011;62150;43.582;1.456;2022-12-20T13:54:56;8.03;;;2.67;;
17496;SDS011;62150;43.582;1.456;2022-12-20T13:57:30;9.27;;;2.80;;
17496;SDS011;62150;43.582;1.456;2022-12-20T14:00:04;8.77;;;3.07;;
17496;SDS011;62150;43.582;1.456;2022-12-20T14:02:40;6.60;;;2.40;;
17496;SDS011;62150;43.582;1.456;2022-12-20T14:05:13;9.53;;;2.80;;
17496;SDS011;62150;43.582;1.456;2022-12-20T14:07:47;8.07;;;3.07;;
17496;SDS011;62150;43.582;1.456;2022-12-20T14:10:22;8.60;;;3.03;;
17496;SDS011;62150;43.582;1.456;2022-12-20T14:12:51;8.07;;;3.20;;
17496;SDS011;62150;43.582;1.456;2022-12-20T14:15:23;8.03;;;2.80;;
17496;SDS011;62150;43.582;1.456;2022-12-20T14:17:53;8.60;;;2.80;;
17496;SDS011;62150;43.582;1.456;2022-12-20T14:20:22;9.97;;;3.10;;
17496;SDS011;62150;43.582;1.456;2022-12-20T14:22:57;9.10;;;3.40;;
17496;SDS011;62150;43.582;1.456;2022-12-20T14:25:28;9.90;;;3.90;;
17496;SDS011;62150;43.582;1.456;2022-12-20T14:27:59;7.80;;;3.20;;
17496;SDS011;62150;43.582;1.456;2022-12-20T14:30:29;13.03;;;4.27;;
17496;SDS011;62150;43.582;1.456;2022-12-20T14:32:58;7.77;;;3.03;;
17496;SDS011;62150;43.582;1.456;2022-12-20T14:35:26;8.33;;;3.00;;
17496;SDS011;62150;43.582;1.456;2022-12-20T14:37:55;8.00;;;3.03;;
17496;SDS011;62150;43.582;1.456;2022-12-20T14:40:26;9.60;;;3.47;;
17496;SDS011;62150;43.582;1.456;2022-12-20T14:42:55;8.13;;;3.00;;
17496;SDS011;62150;43.582;1.456;2022-12-20T14:45:24;9.27;;;3.43;;
17496;SDS011;62150;43.582;1.456;2022-12-20T14:47:57;8.90;;;3.73;;
17496;SDS011;62150;43.582;1.456;2022-12-20T14:50:28;9.67;;;3.30;;
17496;SDS011;62150;43.582;1.456;2022-12-20T14:52:59;9.80;;;3.80;;
17496;SDS011;62150;43.582;1.456;2022-12-20T14:55:31;9.30;;;3.30;;
17496;SDS011;62150;43.582;1.456;2022-12-20T14:58:04;8.43;;;3.50;;
17496;SDS011;62150;43.582;1.456;2022-12-20T15:00:54;6.10;;;2.80;;
17496;SDS011;62150;43.582;1.456;2022-12-20T15:03:23;7.47;;;2.90;;
17496;SDS011;62150;43.582;1.456;2022-12-20T15:05:51;8.27;;;3.47;;
17496;SDS011;62150;43.582;1.456;2022-12-20T15:08:22;7.57;;;3.30;;
17496;SDS011;62150;43.582;1.456;2022-12-20T15:10:53;7.83;;;3.30;;
17496;SDS011;62150;43.582;1.456;2022-12-20T15:13:24;8.07;;;3.23;;
17496;SDS011;62150;43.582;1.456;2022-12-20T15:15:56;9.47;;;3.40;;
17496;SDS011;62150;43.582;1.456;2022-12-20T15:18:28;8.30;;;3.13;;
17496;SDS011;62150;43.582;1.456;2022-12-20T15:21:00;8.83;;;3.50;;
17496;SDS011;62150;43.582;1.456;2022-12-20T15:23:32;7.53;;;3.37;;
17496;SDS011;62150;43.582;1.456;2022-12-20T15:26:00;7.10;;;2.97;;
17496;SDS011;62150;43.582;1.456;2022-12-20T15:28:28;7.73;;;3.43;;
17496;SDS011;62150;43.582;1.456;2022-12-20T15:30:55;8.40;;;3.90;;
17496;SDS011;62150;43.582;1.456;2022-12-20T15:33:23;8.67;;;3.40;;
17496;SDS011;62150;43.582;1.456;2022-12-20T15:35:53;8.23;;;3.63;;
17496;SDS011;62150;43.582;1.456;2022-12-20T15:38:21;7.70;;;3.27;;
17496;SDS011;62150;43.582;1.456;2022-12-20T15:40:53;7.90;;;3.10;;
17496;SDS011;62150;43.582;1.456;2022-12-20T15:43:25;6.57;;;2.83;;
17496;SDS011;62150;43.582;1.456;2022-12-20T15:45:53;8.07;;;3.20;;
17496;SDS011;62150;43.582;1.456;2022-12-20T15:48:21;9.43;;;2.80;;
17496;SDS011;62150;43.582;1.456;2022-12-20T15:50:50;7.53;;;2.80;;
17496;SDS011;62150;43.582;1.456;2022-12-20T15:53:20;8.37;;;2.80;;
17496;SDS011;62150;43.582;1.456;2022-12-20T15:55:53;6.93;;;3.00;;
17496;SDS011;62150;43.582;1.456;2022-12-20T15:58:21;6.60;;;3.03;;
17496;SDS011;62150;43.582;1.456;2022-12-20T16:00:49;7.60;;;3.00;;
17496;SDS011;62150;43.582;1.456;2022-12-20T16:03:21;7.77;;;3.00;;
17496;SDS011;62150;43.582;1.456;2022-12-20T16:05:52;7.60;;;3.13;;
17496;SDS011;62150;43.582;1.456;2022-12-20T16:08:20;10.17;;;3.40;;
17496;SDS011;62150;43.582;1.456;2022-12-20T16:10:49;7.53;;;3.60;;
17496;SDS011;62150;43.582;1.456;2022-12-20T16:13:20;8.60;;;3.97;;
17496;SDS011;62150;43.582;1.456;2022-12-20T16:15:48;10.33;;;3.97;;
17496;SDS011;62150;43.582;1.456;2022-12-20T16:18:16;8.70;;;3.37;;
17496;SDS011;62150;43.582;1.456;2022-12-20T16:20:44;8.70;;;3.33;;
17496;SDS011;62150;43.582;1.456;2022-12-20T16:23:15;7.10;;;3.20;;
17496;SDS011;62150;43.582;1.456;2022-12-20T16:25:44;7.67;;;3.03;;
17496;SDS011;62150;43.582;1.456;2022-12-20T16:28:13;8.07;;;3.43;;
17496;SDS011;62150;43.582;1.456;2022-12-20T16:30:41;10.33;;;3.33;;
17496;SDS011;62150;43.582;1.456;2022-12-20T16:33:10;8.23;;;3.23;;
17496;SDS011;62150;43.582;1.456;2022-12-20T16:35:46;8.27;;;3.03;;
17496;SDS011;62150;43.582;1.456;2022-12-20T16:38:14;7.47;;;2.90;;
17496;SDS011;62150;43.582;1.456;2022-12-20T16:40:42;7.03;;;2.90;;
17496;SDS011;62150;43.582;1.456;2022-12-20T16:43:12;7.10;;;2.93;;
17496;SDS011;62150;43.582;1.456;2022-12-20T16:45:42;7.63;;;3.20;;
17496;SDS011;62150;43.582;1.456;2022-12-20T16:48:09;6.50;;;3.10;;
17496;SDS011;62150;43.582;1.456;2022-12-20T16:50:37;8.87;;;3.30;;
17496;SDS011;62150;43.582;1.456;2022-12-20T16:53:08;8.17;;;3.00;;
17496;SDS011;62150;43.582;1.456;2022-12-20T16:55:39;9.20;;;3.30;;
17496;SDS011;62150;43.582;1.456;2022-12-20T16:58:06;7.73;;;2.93;;
17496;SDS011;62150;43.582;1.456;2022-12-20T17:00:35;7.03;;;3.03;;
17496;SDS011;62150;43.582;1.456;2022-12-20T17:03:03;7.17;;;3.10;;
17496;SDS011;62150;43.582;1.456;2022-12-20T17:05:32;9.20;;;3.27;;
17496;SDS011;62150;43.582;1.456;2022-12-20T17:08:01;9.23;;;3.07;;
17496;SDS011;62150;43.582;1.456;2022-12-20T17:10:30;8.07;;;3.20;;
17496;SDS011;62150;43.582;1.456;2022-12-20T17:12:57;6.27;;;3.03;;
17496;SDS011;62150;43.582;1.456;2022-12-20T17:15:27;10.07;;;4.23;;
17496;SDS011;62150;43.582;1.456;2022-12-20T17:17:57;9.67;;;4.50;;
17496;SDS011;62150;43.582;1.456;2022-12-20T17:20:24;11.87;;;5.27;;
17496;SDS011;62150;43.582;1.456;2022-12-20T17:22:53;13.40;;;5.63;;
17496;SDS011;62150;43.582;1.456;2022-12-20T17:25:22;11.90;;;5.50;;
17496;SDS011;62150;43.582;1.456;2022-12-20T17:27:52;10.90;;;5.03;;
17496;SDS011;62150;43.582;1.456;2022-12-20T17:30:20;11.07;;;5.10;;
17496;SDS011;62150;43.582;1.456;2022-12-20T17:32:49;9.93;;;4.40;;
17496;SDS011;62150;43.582;1.456;2022-12-20T17:35:20;7.83;;;3.70;;
17496;SDS011;62150;43.582;1.456;2022-12-20T17:37:50;12.27;;;6.13;;
17496;SDS011;62150;43.582;1.456;2022-12-20T17:40:20;11.37;;;5.30;;
17496;SDS011;62150;43.582;1.456;2022-12-20T17:42:48;11.57;;;5.40;;
17496;SDS011;62150;43.582;1.456;2022-12-20T17:45:18;9.07;;;4.40;;
17496;SDS011;62150;43.582;1.456;2022-12-20T17:47:52;11.07;;;4.10;;
17496;SDS011;62150;43.582;1.456;2022-12-20T17:50:21;10.73;;;4.53;;
17496;SDS011;62150;43.582;1.456;2022-12-20T17:52:50;9.60;;;4.50;;
17496;SDS011;62150;43.582;1.456;2022-12-20T17:55:19;10.63;;;4.03;;
17496;SDS011;62150;43.582;1.456;2022-12-20T17:57:48;9.67;;;4.30;;
17496;SDS011;62150;43.582;1.456;2022-12-20T18:00:24;10.60;;;5.30;;
17496;SDS011;62150;43.582;1.456;2022-12-20T18:02:53;11.43;;;4.80;;
17496;SDS011;62150;43.582;1.456;2022-12-20T18:05:22;11.20;;;4.10;;
17496;SDS011;62150;43.582;1.456;2022-12-20T18:07:51;10.27;;;4.27;;
17496;SDS011;62150;43.582;1.456;2022-12-20T18:10:20;11.93;;;4.67;;
17496;SDS011;62150;43.582;1.456;2022-12-20T18:12:48;10.47;;;4.47;;
17496;SDS011;62150;43.582;1.456;2022-12-20T18:15:16;11.90;;;4.83;;
17496;SDS011;62150;43.582;1.456;2022-12-20T18:17:44;13.17;;;4.57;;
17496;SDS011;62150;43.582;1.456;2022-12-20T18:20:12;9.13;;;3.70;;
17496;SDS011;62150;43.582;1.456;2022-12-20T18:22:41;10.53;;;4.70;;
17496;SDS011;62150;43.582;1.456;2022-12-20T18:25:08;9.87;;;4.07;;
17496;SDS011;62150;43.582;1.456;2022-12-20T18:27:38;8.70;;;3.77;;
17496;SDS011;62150;43.582;1.456;2022-12-20T18:30:07;8.77;;;4.00;;
17496;SDS011;62150;43.582;1.456;2022-12-20T18:32:37;10.13;;;4.30;;
17496;SDS011;62150;43.582;1.456;2022-12-20T18:35:05;12.07;;;4.77;;
17496;SDS011;62150;43.582;1.456;2022-12-20T18:37:33;12.70;;;6.03;;
17496;SDS011;62150;43.582;1.456;2022-12-20T18:40:02;14.03;;;5.87;;
17496;SDS011;62150;43.582;1.456;2022-12-20T18:42:31;12.37;;;6.17;;
17496;SDS011;62150;43.582;1.456;2022-12-20T18:44:58;13.00;;;6.20;;
17496;SDS011;62150;43.582;1.456;2022-12-20T18:47:26;11.80;;;5.30;;
17496;SDS011;62150;43.582;1.456;2022-12-20T18:49:56;11.27;;;5.20;;
17496;SDS011;62150;43.582;1.456;2022-12-20T18:52:23;13.10;;;6.73;;
17496;SDS011;62150;43.582;1.456;2022-12-20T18:54:51;11.30;;;5.77;;
17496;SDS011;62150;43.582;1.456;2022-12-20T18:57:20;11.93;;;5.63;;
17496;SDS011;62150;43.582;1.456;2022-12-20T18:59:47;11.33;;;5.47;;
17496;SDS011;62150;43.582;1.456;2022-12-20T19:02:15;12.97;;;4.87;;
17496;SDS011;62150;43.582;1.456;2022-12-20T19:04:42;12.70;;;5.07;;
17496;SDS011;62150;43.582;1.456;2022-12-20T19:07:10;12.80;;;5.90;;
17496;SDS011;62150;43.582;1.456;2022-12-20T19:09:37;12.40;;;6.27;;
17496;SDS011;62150;43.582;1.456;2022-12-20T19:12:05;10.77;;;5.47;;
17496;SDS011;62150;43.582;1.456;2022-12-20T19:14:34;13.63;;;5.97;;
17496;SDS011;62150;43.582;1.456;2022-12-20T19:17:01;12.30;;;5.23;;
17496;SDS011;62150;43.582;1.456;2022-12-20T19:19:29;13.17;;;5.23;;
17496;SDS011;62150;43.582;1.456;2022-12-20T19:21:56;13.27;;;4.77;;
17496;SDS011;62150;43.582;1.456;2022-12-20T19:24:24;11.50;;;5.27;;
17496;SDS011;62150;43.582;1.456;2022-12-20T19:26:51;9.93;;;4.33;;
17496;SDS011;62150;43.582;1.456;2022-12-20T19:29:19;11.13;;;4.53;;
17496;SDS011;62150;43.582;1.456;2022-12-20T19:31:48;13.60;;;5.10;;
17496;SDS011;62150;43.582;1.456;2022-12-20T19:34:15;11.60;;;4.73;;
17496;SDS011;62150;43.582;1.456;2022-12-20T19:36:44;10.30;;;4.13;;
17496;SDS011;62150;43.582;1.456;2022-12-20T19:39:13;11.00;;;4.57;;
17496;SDS011;62150;43.582;1.456;2022-12-20T19:41:42;10.10;;;4.30;;
17496;SDS011;62150;43.582;1.456;2022-12-20T19:44:09;9.27;;;4.27;;
17496;SDS011;62150;43.582;1.456;2022-12-20T19:46:37;13.50;;;5.40;;
17496;SDS011;62150;43.582;1.456;2022-12-20T19:49:06;12.10;;;5.60;;
17496;SDS011;62150;43.582;1.456;2022-12-20T19:51:35;11.33;;;5.10;;
17496;SDS011;62150;43.582;1.456;2022-12-20T19:54:02;13.33;;;6.77;;
17496;SDS011;62150;43.582;1.456;2022-12-20T19:56:31;11.80;;;6.23;;
17496;SDS011;62150;43.582;1.456;2022-12-20T19:59:01;13.20;;;6.17;;
17496;SDS011;62150;43.582;1.456;2022-12-20T20:01:29;10.60;;;5.00;;
17496;SDS011;62150;43.582;1.456;2022-12-20T20:03:57;13.43;;;5.40;;
17496;SDS011;62150;43.582;1.456;2022-12-20T20:06:27;12.43;;;5.37;;
17496;SDS011;62150;43.582;1.456;2022-12-20T20:08:54;11.83;;;5.50;;
17496;SDS011;62150;43.582;1.456;2022-12-20T20:11:23;12.10;;;5.90;;
17496;SDS011;62150;43.582;1.456;2022-12-20T20:13:52;11.40;;;5.20;;
17496;SDS011;62150;43.582;1.456;2022-12-20T20:16:19;11.47;;;5.10;;
17496;SDS011;62150;43.582;1.456;2022-12-20T20:18:48;12.87;;;5.30;;
17496;SDS011;62150;43.582;1.456;2022-12-20T20:21:16;10.40;;;4.37;;
17496;SDS011;62150;43.582;1.456;2022-12-20T20:23:49;12.10;;;4.33;;
17496;SDS011;62150;43.582;1.456;2022-12-20T20:26:18;11.07;;;4.83;;
17496;SDS011;62150;43.582;1.456;2022-12-20T20:28:48;11.70;;;4.43;;
17496;SDS011;62150;43.582;1.456;2022-12-20T20:31:16;11.30;;;4.00;;
17496;SDS011;62150;43.582;1.456;2022-12-20T20:33:44;11.00;;;4.47;;
17496;SDS011;62150;43.582;1.456;2022-12-20T20:36:12;12.10;;;5.77;;
17496;SDS011;62150;43.582;1.456;2022-12-20T20:38:41;13.33;;;5.57;;
17496;SDS011;62150;43.582;1.456;2022-12-20T20:41:11;11.97;;;4.83;;
17496;SDS011;62150;43.582;1.456;2022-12-20T20:43:39;10.53;;;4.77;;
17496;SDS011;62150;43.582;1.456;2022-12-20T20:46:07;10.13;;;4.50;;
17496;SDS011;62150;43.582;1.456;2022-12-20T20:48:36;12.30;;;5.00;;
17496;SDS011;62150;43.582;1.456;2022-12-20T20:51:05;11.97;;;4.93;;
17496;SDS011;62150;43.582;1.456;2022-12-20T20:53:32;10.30;;;4.60;;
17496;SDS011;62150;43.582;1.456;2022-12-20T20:56:00;10.40;;;4.30;;
17496;SDS011;62150;43.582;1.456;2022-12-20T20:58:29;10.77;;;4.80;;
17496;SDS011;62150;43.582;1.456;2022-12-20T21:00:58;13.87;;;5.77;;
17496;SDS011;62150;43.582;1.456;2022-12-20T21:03:26;12.13;;;4.83;;
17496;SDS011;62150;43.582;1.456;2022-12-20T21:05:55;10.67;;;4.73;;
17496;SDS011;62150;43.582;1.456;2022-12-20T21:08:22;10.60;;;4.37;;
17496;SDS011;62150;43.582;1.456;2022-12-20T21:10:50;10.20;;;4.50;;
17496;SDS011;62150;43.582;1.456;2022-12-20T21:13:17;10.87;;;5.10;;
17496;SDS011;62150;43.582;1.456;2022-12-20T21:15:47;12.83;;;5.87;;
17496;SDS011;62150;43.582;1.456;2022-12-20T21:18:14;10.67;;;5.13;;
17496;SDS011;62150;43.582;1.456;2022-12-20T21:20:41;11.33;;;5.27;;
17496;SDS011;62150;43.582;1.456;2022-12-20T21:23:09;14.47;;;5.90;;
17496;SDS011;62150;43.582;1.456;2022-12-20T21:25:37;12.70;;;5.30;;
17496;SDS011;62150;43.582;1.456;2022-12-20T21:28:04;15.07;;;5.53;;
17496;SDS011;62150;43.582;1.456;2022-12-20T21:30:32;11.80;;;5.40;;
17496;SDS011;62150;43.582;1.456;2022-12-20T21:33:01;12.30;;;5.60;;
17496;SDS011;62150;43.582;1.456;2022-12-20T21:35:28;10.87;;;5.23;;
17496;SDS011;62150;43.582;1.456;2022-12-20T21:37:56;11.17;;;4.90;;
17496;SDS011;62150;43.582;1.456;2022-12-20T21:40:25;10.93;;;5.20;;
17496;SDS011;62150;43.582;1.456;2022-12-20T21:42:53;13.30;;;4.90;;
17496;SDS011;62150;43.582;1.456;2022-12-20T21:45:20;10.97;;;4.30;;
17496;SDS011;62150;43.582;1.456;2022-12-20T21:47:48;9.97;;;4.40;;
17496;SDS011;62150;43.582;1.456;2022-12-20T21:50:17;9.57;;;4.27;;
17496;SDS011;62150;43.582;1.456;2022-12-20T21:52:45;10.23;;;4.43;;
17496;SDS011;62150;43.582;1.456;2022-12-20T21:55:12;10.17;;;4.50;;
17496;SDS011;62150;43.582;1.456;2022-12-20T21:57:39;11.97;;;4.90;;
17496;SDS011;62150;43.582;1.456;2022-12-20T22:00:08;10.43;;;4.50;;
17496;SDS011;62150;43.582;1.456;2022-12-20T22:02:36;12.57;;;4.40;;
17496;SDS011;62150;43.582;1.456;2022-12-20T22:05:04;10.80;;;4.47;;
17496;SDS011;62150;43.582;1.456;2022-12-20T22:07:33;11.00;;;4.33;;
17496;SDS011;62150;43.582;1.456;2022-12-20T22:10:01;11.47;;;4.20;;
17496;SDS011;62150;43.582;1.456;2022-12-20T22:12:28;11.60;;;4.30;;
17496;SDS011;62150;43.582;1.456;2022-12-20T22:14:56;10.37;;;4.40;;
17496;SDS011;62150;43.582;1.456;2022-12-20T22:17:23;10.33;;;4.30;;
17496;SDS011;62150;43.582;1.456;2022-12-20T22:19:52;10.80;;;4.30;;
17496;SDS011;62150;43.582;1.456;2022-12-20T22:22:19;10.97;;;4.40;;
17496;SDS011;62150;43.582;1.456;2022-12-20T22:24:48;11.73;;;4.17;;
17496;SDS011;62150;43.582;1.456;2022-12-20T22:27:16;10.77;;;4.57;;
17496;SDS011;62150;43.582;1.456;2022-12-20T22:29:43;11.57;;;4.47;;
17496;SDS011;62150;43.582;1.456;2022-12-20T22:32:11;10.77;;;4.43;;
17496;SDS011;62150;43.582;1.456;2022-12-20T22:34:39;11.20;;;4.37;;